createdAt,value
2019-02-16T00:02:36.226Z,10.90
2019-02-16T00:05:18.373Z,10.43
2019-02-16T00:08:00.502Z,10.20
2019-02-16T00:10:42.386Z,10.93
2019-02-16T00:13:24.078Z,10.70
2019-02-16T00:15:54.351Z,11.37
2019-02-16T00:18:36.018Z,11.00
2019-02-16T00:21:17.920Z,11.50
2019-02-16T00:23:59.909Z,11.03
2019-02-16T00:26:41.846Z,10.17
2019-02-16T00:29:23.909Z,10.57
2019-02-16T00:32:05.962Z,11.17
2019-02-16T00:34:47.934Z,11.43
2019-02-16T00:37:30.106Z,11.80
2019-02-16T00:40:12.018Z,10.67
2019-02-16T00:42:54.835Z,10.70
2019-02-16T00:45:36.590Z,11.43
2019-02-16T00:48:06.873Z,11.80
2019-02-16T00:50:49.290Z,11.37
2019-02-16T00:53:31.012Z,11.87
2019-02-16T00:56:13.114Z,11.20
2019-02-16T00:58:55.218Z,11.47
2019-02-16T01:01:36.763Z,11.90
2019-02-16T01:04:18.965Z,11.23
2019-02-16T01:07:00.995Z,12.13
2019-02-16T01:09:42.981Z,12.53
2019-02-16T01:12:24.922Z,11.50
2019-02-16T01:18:32.145Z,12.00
2019-02-16T01:21:22.475Z,11.10
2019-02-16T01:23:58.001Z,12.00
2019-02-16T01:26:39.916Z,12.63
2019-02-16T01:29:21.814Z,11.60
2019-02-16T01:32:03.888Z,11.83
2019-02-16T01:34:45.846Z,11.70
2019-02-16T01:37:28.780Z,11.30
2019-02-16T01:40:10.833Z,11.70
2019-02-16T01:42:52.959Z,11.23
2019-02-16T01:45:34.890Z,11.73
2019-02-16T01:48:17.162Z,12.07
2019-02-16T01:50:59.080Z,11.30
2019-02-16T01:53:41.182Z,10.60
2019-02-16T01:56:23.583Z,11.03
2019-02-16T01:59:05.784Z,11.17
2019-02-16T02:01:47.895Z,11.20
2019-02-16T02:04:29.993Z,11.43
2019-02-16T02:07:11.542Z,11.80
2019-02-16T02:09:53.573Z,11.30
2019-02-16T02:12:35.467Z,11.60
2019-02-16T02:15:17.274Z,11.83
2019-02-16T02:17:59.050Z,10.97
2019-02-16T02:20:41.214Z,11.17
2019-02-16T02:23:23.225Z,11.47
2019-02-16T02:28:53.783Z,10.10
2019-02-16T02:31:37.459Z,10.37
2019-02-16T02:34:19.737Z,10.97
2019-02-16T02:37:01.401Z,10.73
2019-02-16T02:39:49.350Z,10.17
2019-02-16T02:42:30.972Z,9.90
2019-02-16T02:45:13.092Z,9.77
2019-02-16T02:47:55.123Z,10.43
2019-02-16T02:50:37.162Z,10.07
2019-02-16T02:53:19.566Z,9.57
2019-02-16T02:56:01.581Z,9.87
2019-02-16T02:58:43.707Z,9.53
2019-02-16T03:01:25.904Z,9.70
2019-02-16T03:07:33.705Z,12.47
2019-02-16T03:10:15.481Z,12.13
2019-02-16T03:12:57.498Z,11.63
2019-02-16T03:15:27.779Z,11.60
2019-02-16T03:18:09.802Z,10.33
2019-02-16T03:23:40.905Z,11.97
2019-02-16T03:29:49.366Z,16.23
2019-02-16T03:32:31.551Z,16.10
2019-02-16T03:35:13.476Z,14.37
2019-02-16T03:37:55.746Z,13.10
2019-02-16T03:40:37.810Z,11.53
2019-02-16T03:43:20.145Z,10.20
2019-02-16T03:46:03.085Z,11.57
2019-02-16T03:48:45.072Z,11.83
2019-02-16T03:51:27.301Z,11.47
2019-02-16T03:53:57.583Z,11.33
2019-02-16T03:56:39.939Z,11.57
2019-02-16T03:59:21.865Z,10.73
2019-02-16T04:02:03.439Z,10.60
2019-02-16T04:04:45.690Z,9.63
2019-02-16T04:07:28.023Z,10.07
2019-02-16T04:10:14.017Z,9.57
2019-02-16T04:12:56.187Z,10.00
2019-02-16T04:15:38.344Z,9.83
2019-02-16T04:18:20.544Z,9.50
2019-02-16T04:21:02.999Z,10.77
2019-02-16T04:23:45.046Z,10.37
2019-02-16T04:26:27.250Z,10.13
2019-02-16T04:28:57.508Z,9.53
2019-02-16T04:34:48.226Z,10.27
2019-02-16T04:37:30.093Z,9.80
2019-02-16T04:40:12.318Z,10.53
2019-02-16T04:42:54.630Z,10.47
2019-02-16T04:45:24.907Z,10.57
2019-02-16T04:48:14.239Z,10.53
2019-02-16T04:50:56.223Z,9.90
2019-02-16T04:53:38.268Z,9.87
2019-02-16T04:56:20.577Z,10.20
2019-02-16T04:59:02.712Z,10.30
2019-02-16T05:01:44.693Z,10.53
2019-02-16T05:04:26.806Z,10.17
2019-02-16T05:07:08.850Z,9.40
2019-02-16T05:09:50.672Z,10.17
2019-02-16T05:12:32.922Z,10.23
2019-02-16T05:15:14.910Z,10.87
2019-02-16T05:17:57.108Z,10.80
2019-02-16T05:20:39.350Z,10.20
2019-02-16T05:23:21.472Z,9.70
2019-02-16T05:26:03.394Z,10.00
2019-02-16T05:28:45.540Z,9.60
2019-02-16T05:31:15.833Z,10.40
2019-02-16T05:34:05.166Z,10.03
2019-02-16T05:36:47.506Z,10.13
2019-02-16T05:39:29.663Z,10.10
2019-02-16T05:42:11.377Z,10.40
2019-02-16T05:44:53.567Z,9.87
2019-02-16T05:47:35.802Z,10.37
2019-02-16T05:50:17.787Z,12.03
2019-02-16T05:52:59.896Z,11.40
2019-02-16T05:55:42.075Z,10.10
2019-02-16T05:58:24.194Z,10.70
2019-02-16T06:01:06.169Z,9.27
2019-02-16T06:03:48.033Z,9.43
2019-02-16T06:06:31.404Z,9.17
2019-02-16T06:12:39.186Z,11.40
2019-02-16T06:15:21.401Z,11.13
2019-02-16T06:18:03.451Z,11.20
2019-02-16T06:20:45.447Z,11.07
2019-02-16T06:23:27.549Z,10.67
2019-02-16T06:28:58.965Z,10.40
2019-02-16T06:31:41.230Z,10.23
2019-02-16T06:34:23.172Z,10.90
2019-02-16T06:40:29.637Z,11.17
2019-02-16T06:43:11.686Z,11.40
2019-02-16T06:45:41.944Z,10.43
2019-02-16T06:48:24.010Z,11.17
2019-02-16T06:51:05.820Z,10.80
2019-02-16T06:53:48.119Z,12.37
2019-02-16T06:56:50.383Z,11.40
2019-02-16T06:59:32.434Z,10.43
2019-02-16T07:02:14.673Z,12.07
2019-02-16T07:05:01.478Z,11.33
2019-02-16T07:07:44.873Z,11.40
2019-02-16T07:10:26.735Z,10.63
2019-02-16T07:13:08.565Z,11.93
2019-02-16T07:19:00.635Z,10.83
2019-02-16T07:24:47.614Z,10.97
2019-02-16T07:27:29.758Z,10.73
2019-02-16T07:30:11.611Z,12.30
2019-02-16T07:32:53.593Z,12.73
2019-02-16T07:38:43.502Z,13.53
2019-02-16T07:41:25.425Z,12.93
2019-02-16T07:47:28.917Z,13.23
2019-02-16T07:53:40.888Z,12.73
2019-02-16T07:56:33.072Z,11.20
2019-02-16T07:59:34.110Z,10.90
2019-02-16T08:02:23.763Z,11.00
2019-02-16T08:05:20.977Z,11.17
2019-02-16T08:08:09.776Z,10.83
2019-02-16T08:11:10.254Z,12.80
2019-02-16T08:17:34.476Z,11.47
2019-02-16T08:23:40.387Z,11.03
2019-02-16T08:26:44.575Z,10.93
2019-02-16T08:29:44.946Z,13.80
2019-02-16T08:32:46.266Z,14.27
2019-02-16T08:35:47.070Z,15.63
2019-02-16T08:38:53.794Z,16.30
2019-02-16T08:41:55.014Z,14.33
2019-02-16T08:44:56.338Z,12.20
2019-02-16T08:48:00.135Z,12.00
2019-02-16T08:50:46.957Z,13.20
2019-02-16T08:53:32.239Z,13.10
2019-02-16T08:56:33.284Z,12.03
2019-02-16T08:59:34.277Z,11.20
2019-02-16T09:02:33.565Z,10.43
2019-02-16T09:05:24.303Z,11.27
2019-02-16T09:08:13.545Z,11.13
2019-02-16T09:11:21.829Z,12.37
2019-02-16T09:14:11.055Z,11.83
2019-02-16T09:23:37.787Z,14.63
2019-02-16T09:26:38.569Z,11.93
2019-02-16T09:29:21.733Z,13.00
2019-02-16T09:32:13.127Z,12.53
2019-02-16T09:35:09.656Z,13.00
2019-02-16T09:37:58.908Z,11.93
2019-02-16T09:41:07.171Z,12.57
2019-02-16T09:44:07.922Z,13.03
2019-02-16T09:47:11.708Z,13.23
2019-02-16T09:50:12.176Z,13.27
2019-02-16T09:53:01.409Z,13.27
2019-02-16T09:56:02.554Z,13.60
2019-02-16T09:59:03.585Z,14.37
2019-02-16T10:02:07.071Z,13.97
2019-02-16T10:04:56.355Z,13.57
2019-02-16T10:08:04.647Z,12.90
2019-02-16T10:11:05.176Z,13.70
2019-02-16T10:14:09.001Z,13.07
2019-02-16T10:20:34.543Z,12.93
2019-02-16T10:23:34.594Z,12.80
2019-02-16T10:26:30.400Z,13.97
2019-02-16T10:29:31.457Z,13.70
2019-02-16T10:32:22.220Z,13.63
2019-02-16T10:35:16.984Z,14.73
2019-02-16T10:38:13.618Z,16.80
2019-02-16T10:41:24.256Z,15.73
2019-02-16T10:44:24.801Z,16.00
2019-02-16T10:47:26.128Z,16.67
2019-02-16T10:50:26.994Z,16.17
2019-02-16T10:53:31.133Z,16.60
2019-02-16T10:56:32.492Z,16.63
2019-02-16T10:59:33.977Z,16.63
2019-02-16T11:02:35.098Z,18.03
2019-02-16T11:05:39.085Z,16.93
2019-02-16T11:08:31.962Z,17.73
2019-02-16T11:11:27.345Z,17.83
2019-02-16T11:14:34.883Z,17.50
2019-02-16T11:17:37.556Z,18.47
2019-02-16T11:20:29.766Z,18.27
2019-02-16T11:23:30.754Z,18.03
2019-02-16T11:26:31.581Z,18.37
2019-02-16T11:29:37.282Z,20.17
2019-02-16T11:32:19.550Z,18.50
2019-02-16T11:35:11.538Z,18.50
2019-02-16T11:38:12.034Z,18.13
2019-02-16T11:41:19.001Z,17.40
2019-02-16T11:44:23.949Z,17.90
2019-02-16T11:50:47.425Z,17.60
2019-02-16T11:53:35.780Z,18.53
2019-02-16T11:59:32.176Z,18.00
2019-02-16T12:02:39.413Z,19.97
2019-02-16T12:05:41.720Z,18.33
2019-02-16T12:08:48.858Z,17.67
2019-02-16T12:11:38.052Z,18.23
2019-02-16T12:14:46.352Z,18.13
2019-02-16T12:20:58.889Z,18.57
2019-02-16T12:23:47.966Z,18.93
2019-02-16T12:29:57.028Z,18.90
2019-02-16T12:33:04.004Z,18.27
2019-02-16T12:36:08.250Z,17.97
2019-02-16T12:39:13.653Z,19.07
2019-02-16T12:45:28.667Z,20.23
2019-02-16T12:51:32.027Z,18.77
2019-02-16T12:54:31.895Z,18.97
2019-02-16T12:57:32.825Z,18.63
2019-02-16T13:00:34.082Z,18.27
2019-02-16T13:03:34.905Z,18.30
2019-02-16T13:06:31.618Z,18.90
2019-02-16T13:09:32.181Z,19.03
2019-02-16T13:12:35.856Z,19.17
2019-02-16T13:15:39.602Z,18.17
2019-02-16T13:18:29.221Z,19.63
2019-02-16T13:21:17.814Z,18.77
2019-02-16T13:24:12.546Z,18.10
2019-02-16T13:27:13.497Z,19.77
2019-02-16T13:30:11.974Z,18.87
2019-02-16T13:33:19.544Z,19.17
2019-02-16T13:39:28.875Z,18.23
2019-02-16T13:42:17.605Z,18.23
2019-02-16T13:48:43.922Z,19.17
2019-02-16T13:51:36.252Z,19.13
2019-02-16T13:54:31.760Z,19.33
2019-02-16T13:57:33.694Z,18.07
2019-02-16T14:00:23.023Z,18.30
2019-02-16T14:03:13.846Z,19.10
2019-02-16T14:06:11.563Z,19.33
2019-02-16T14:09:12.890Z,18.80
2019-02-16T14:12:02.788Z,17.97
2019-02-16T14:15:11.206Z,19.60
2019-02-16T14:17:45.138Z,17.53
2019-02-16T14:20:34.506Z,18.37
2019-02-16T14:23:16.144Z,18.43
2019-02-16T14:25:57.732Z,18.50
2019-02-16T14:28:40.563Z,18.10
2019-02-16T14:31:28.254Z,19.73
2019-02-16T14:34:06.532Z,20.03
2019-02-16T14:36:48.593Z,19.03
2019-02-16T14:39:32.600Z,18.50
2019-02-16T14:42:15.041Z,17.90
2019-02-16T14:48:22.290Z,17.02
2019-02-16T14:51:03.034Z,16.15
2019-02-16T14:53:46.334Z,16.80
2019-02-16T14:56:28.274Z,19.05
2019-02-16T14:59:10.459Z,20.02
2019-02-16T15:01:52.380Z,19.25
2019-02-16T15:04:35.806Z,19.00
2019-02-16T15:10:08.005Z,19.10
2019-02-16T15:13:09.295Z,16.25
2019-02-16T15:15:51.510Z,16.12
2019-02-16T15:18:33.901Z,16.93
2019-02-16T15:21:16.046Z,16.32
2019-02-16T15:23:58.202Z,17.90
2019-02-16T15:26:39.968Z,17.85
2019-02-16T15:29:22.329Z,18.35
2019-02-16T15:32:04.083Z,18.92
2019-02-16T15:34:46.025Z,18.32
2019-02-16T15:37:28.075Z,16.40
2019-02-16T15:40:09.943Z,16.97
2019-02-16T15:42:52.049Z,16.93
2019-02-16T15:45:34.240Z,17.70
2019-02-16T15:48:16.333Z,17.33
2019-02-16T15:50:58.489Z,17.80
2019-02-16T15:53:40.438Z,17.43
2019-02-16T15:59:47.976Z,17.27
2019-02-16T16:02:18.250Z,17.03
2019-02-16T16:05:07.600Z,16.77
2019-02-16T16:07:54.530Z,17.67
2019-02-16T16:10:44.259Z,17.03
2019-02-16T16:16:55.222Z,17.50
2019-02-16T16:19:59.479Z,17.93
2019-02-16T16:23:08.109Z,18.27
2019-02-16T16:26:03.924Z,18.63
2019-02-16T16:29:00.539Z,19.27
2019-02-16T16:31:58.238Z,19.80
2019-02-16T16:34:59.569Z,20.03
2019-02-16T16:38:09.194Z,19.60
2019-02-16T16:41:15.151Z,20.87
2019-02-16T16:47:24.179Z,20.63
2019-02-16T16:50:18.742Z,20.43
2019-02-16T16:53:21.747Z,21.33
2019-02-16T16:56:08.258Z,19.83
2019-02-16T17:02:26.773Z,19.90
2019-02-16T17:05:27.874Z,18.37
2019-02-16T17:17:33.397Z,18.07
2019-02-16T17:20:40.638Z,22.13
2019-02-16T17:23:41.404Z,18.23
2019-02-16T17:26:48.000Z,18.73
2019-02-16T17:29:38.762Z,18.20
2019-02-16T17:32:41.322Z,18.20
2019-02-16T17:35:48.295Z,18.10
2019-02-16T17:38:52.105Z,17.53
2019-02-16T17:41:58.700Z,17.60
2019-02-16T17:45:02.473Z,18.77
2019-02-16T17:50:47.908Z,18.17
2019-02-16T17:53:55.473Z,20.33
2019-02-16T17:56:55.361Z,20.40
2019-02-16T17:59:56.034Z,19.17
2019-02-16T18:02:57.207Z,18.87
2019-02-16T18:06:00.795Z,19.83
2019-02-16T18:09:02.097Z,18.97
2019-02-16T18:11:51.400Z,18.47
2019-02-16T18:14:53.435Z,18.67
2019-02-16T18:17:43.379Z,19.83
2019-02-16T18:20:34.916Z,20.60
2019-02-16T18:23:28.182Z,19.63
2019-02-16T18:26:23.097Z,19.80
2019-02-16T18:29:27.317Z,20.73
2019-02-16T18:32:19.115Z,31.40
2019-02-16T18:35:24.000Z,29.33
2019-02-16T18:38:23.063Z,27.43
2019-02-16T18:41:23.950Z,25.33
2019-02-16T18:44:24.921Z,22.83
2019-02-16T18:47:23.406Z,22.90
2019-02-16T18:50:21.320Z,22.47
2019-02-16T18:56:00.866Z,21.70
2019-02-16T18:58:50.139Z,21.77
2019-02-16T19:01:39.841Z,21.60
2019-02-16T19:04:32.147Z,22.20
2019-02-16T19:07:33.363Z,22.93
2019-02-16T19:10:23.247Z,22.13
2019-02-16T19:13:12.584Z,20.77
2019-02-16T19:19:21.497Z,21.30
2019-02-16T19:22:27.813Z,21.27
2019-02-16T19:25:30.900Z,21.20
2019-02-16T19:28:35.189Z,23.33
2019-02-16T19:31:36.105Z,22.63
2019-02-16T19:34:36.738Z,22.37
2019-02-16T19:37:20.301Z,20.83
2019-02-16T19:40:24.325Z,22.83
2019-02-16T19:43:14.777Z,21.67
2019-02-16T19:46:07.129Z,20.57
2019-02-16T19:49:18.505Z,20.80
2019-02-16T19:52:19.751Z,20.57
2019-02-16T19:55:13.143Z,20.67
2019-02-16T19:58:19.801Z,19.83
2019-02-16T20:01:21.021Z,20.10
2019-02-16T20:04:22.188Z,20.53
2019-02-16T20:07:22.989Z,23.93
2019-02-16T20:10:19.227Z,24.20
2019-02-16T20:13:26.172Z,22.80
2019-02-16T20:22:39.778Z,25.27
2019-02-16T20:25:40.475Z,23.90
2019-02-16T20:31:55.428Z,22.40
2019-02-16T20:34:59.567Z,21.77
2019-02-16T20:37:47.530Z,20.57
2019-02-16T20:40:48.165Z,20.23
2019-02-16T20:43:48.874Z,20.60
2019-02-16T20:46:58.283Z,19.57
2019-02-16T20:50:43.292Z,20.30
2019-02-16T20:53:10.191Z,21.90
2019-02-16T20:59:20.896Z,24.03
2019-02-16T21:02:22.803Z,22.93
2019-02-16T21:05:14.629Z,24.10
2019-02-16T21:08:16.394Z,24.07
2019-02-16T21:11:17.603Z,24.80
2019-02-16T21:17:19.771Z,24.00
2019-02-16T21:20:13.164Z,23.70
2019-02-16T21:22:58.822Z,22.23
2019-02-16T21:25:59.515Z,20.47
2019-02-16T21:29:07.005Z,19.53
2019-02-16T21:32:08.534Z,19.37
2019-02-16T21:35:10.049Z,19.17
2019-02-16T21:38:10.788Z,19.53
2019-02-16T21:41:11.383Z,21.23
2019-02-16T21:47:32.235Z,23.80
2019-02-16T21:50:32.729Z,21.20
